6NK5 weather

Erie County Medical Center Heliport
Buffalo, New York, United States

Public forecast

Using degrees Fahrenheit for public forecast. Weather courtesy of forecast.io.

Closest aviation weather report (METAR) to Erie County Medical Center Heliport

Closest report is Buffalo Niagara International Airport, 4.5 nm (8.3 km) E. Retrieved 2019/10/21 00:54 UTC (8 minutes ago):

KBUF 210054Z 05003KT 10SM CLR 12/08 A2996 RMK AO2 SLP147 T01170078

Closest aviation forecast (TAF) to Erie County Medical Center Heliport

Closest forecast is Buffalo Niagara International Airport, 4.5 nm (8.3 km) E. Retrieved 2019-10-21 00:22 UTC (40 minutes ago):

TAF KBUF 202320Z 2100/2124 VRB03KT P6SM FEW250 FM211300 10004KT P6SM SCT250 FM212100 11008KT P6SM BKN200